Time;durP1;ratioP1;P1;durP2;ratioP2;P2;SDS_P1;SDS_P2;PMS_P1;PMS_P2;Temp;Humidity;BMP_temperature;BMP_pressure;BME280_temperature;BME280_humidity;BME280_pressure;Samples;Min_cycle;Max_cycle;Signal;HPM_P1;HPM_P2
2023/11/06 00:00:18;;;;;;;4.28;2.55;;;25.30;99.90;;;;;;5033774;28;20128;-48
2023/11/06 00:02:45;;;;;;;4.85;2.38;;;25.30;99.90;;;;;;5034844;28;20075;-48
2023/11/06 00:05:11;;;;;;;6.03;2.70;;;25.20;99.90;;;;;;5034941;28;20033;-48
2023/11/06 00:07:37;;;;;;;6.28;3.10;;;25.30;99.90;;;;;;5035148;28;20033;-47
2023/11/06 00:10:04;;;;;;;5.60;2.40;;;25.20;99.90;;;;;;5035086;28;20029;-48
2023/11/06 00:12:30;;;;;;;4.20;2.33;;;25.20;99.90;;;;;;5035157;28;20027;-47
2023/11/06 00:14:56;;;;;;;6.77;2.50;;;25.20;99.90;;;;;;5034841;28;20550;-47
2023/11/06 00:17:25;;;;;;;5.05;2.40;;;25.20;99.90;;;;;;5034941;28;20485;-48
2023/11/06 00:19:51;;;;;;;6.30;2.30;;;25.20;99.90;;;;;;5034684;28;20029;-49
2023/11/06 00:22:17;;;;;;;4.65;2.60;;;25.10;99.90;;;;;;5034772;28;20043;-48
2023/11/06 00:24:43;;;;;;;4.40;2.45;;;25.10;99.90;;;;;;5034789;28;20581;-48
2023/11/06 00:27:09;;;;;;;5.80;2.78;;;25.10;99.90;;;;;;5033615;28;20055;-48
2023/11/06 00:29:35;;;;;;;4.80;2.85;;;25.10;99.90;;;;;;5034868;28;20489;-47
2023/11/06 00:32:02;;;;;;;4.50;2.78;;;25.10;99.90;;;;;;5035007;28;20064;-48
2023/11/06 00:34:29;;;;;;;5.35;2.60;;;25.10;99.90;;;;;;5034635;28;20040;-47
2023/11/06 00:36:55;;;;;;;4.28;2.33;;;25.10;99.90;;;;;;5033264;28;20500;-48
2023/11/06 00:39:20;;;;;;;5.18;2.78;;;25.10;99.90;;;;;;5033254;28;20033;-48
2023/11/06 00:41:46;;;;;;;7.50;2.80;;;25.00;99.90;;;;;;5034553;28;20026;-48
2023/11/06 00:44:12;;;;;;;4.80;2.22;;;25.00;99.90;;;;;;5033211;28;20437;-48
2023/11/06 00:46:38;;;;;;;5.28;2.78;;;25.00;99.90;;;;;;5034488;28;20025;-48
2023/11/06 00:49:03;;;;;;;7.57;2.70;;;25.00;99.90;;;;;;5034517;28;20132;-48
2023/11/06 00:51:29;;;;;;;3.75;2.10;;;25.00;99.90;;;;;;5034384;28;20010;-48
2023/11/06 00:53:55;;;;;;;3.97;2.17;;;25.00;99.90;;;;;;5034058;28;20501;-48
2023/11/06 00:56:21;;;;;;;5.88;2.22;;;25.00;99.90;;;;;;5034335;28;20025;-48
2023/11/06 00:58:46;;;;;;;6.70;2.70;;;24.90;99.90;;;;;;5034144;28;20037;-48
2023/11/06 01:01:13;;;;;;;4.05;2.47;;;25.00;99.90;;;;;;5038609;22;20602;-41
2023/11/06 01:03:39;;;;;;;6.65;2.22;;;24.90;99.90;;;;;;5007998;28;20034;-40
2023/11/06 01:06:05;;;;;;;4.88;2.75;;;24.90;99.90;;;;;;4995570;28;20023;-40
2023/11/06 01:08:31;;;;;;;3.17;1.88;;;24.90;99.90;;;;;;5010364;28;20090;-40
2023/11/06 01:10:57;;;;;;;3.95;2.40;;;24.90;99.90;;;;;;5013722;28;20022;-40
2023/11/06 01:13:23;;;;;;;3.45;2.22;;;24.80;99.90;;;;;;5013798;28;20033;-40
2023/11/06 01:15:48;;;;;;;4.70;1.95;;;24.80;99.90;;;;;;5013709;28;20034;-39
2023/11/06 01:18:15;;;;;;;3.28;2.35;;;24.90;99.90;;;;;;5013548;28;20018;-40
2023/11/06 01:20:41;;;;;;;4.57;2.08;;;24.80;99.90;;;;;;5013677;28;20105;-40
2023/11/06 01:23:07;;;;;;;4.97;2.53;;;24.80;99.90;;;;;;5013450;28;20109;-40
2023/11/06 01:25:33;;;;;;;6.00;2.67;;;24.80;99.90;;;;;;5013125;28;20036;-41
2023/11/06 01:27:59;;;;;;;4.15;1.92;;;24.70;99.90;;;;;;5012481;28;20088;-40
2023/11/06 01:30:25;;;;;;;4.68;2.40;;;24.70;99.90;;;;;;5013108;28;20022;-40
2023/11/06 01:32:51;;;;;;;5.20;2.10;;;24.70;99.90;;;;;;5013074;28;20028;-40
2023/11/06 01:35:19;;;;;;;6.20;2.38;;;24.70;99.90;;;;;;5013607;28;20452;-41
2023/11/06 01:37:46;;;;;;;3.50;2.10;;;24.70;99.90;;;;;;5013638;28;20081;-40
2023/11/06 01:40:12;;;;;;;4.65;2.20;;;24.70;99.90;;;;;;5013623;28;20548;-40
2023/11/06 01:42:38;;;;;;;3.53;2.05;;;24.70;99.90;;;;;;5012533;28;20026;-41
2023/11/06 01:45:07;;;;;;;3.47;2.35;;;24.70;99.90;;;;;;5013536;28;20053;-40
2023/11/06 01:47:34;;;;;;;3.78;1.95;;;24.70;99.90;;;;;;5013580;28;20485;-40
2023/11/06 01:50:03;;;;;;;5.60;2.53;;;24.60;99.90;;;;;;5013653;28;20084;-42
2023/11/06 01:52:30;;;;;;;3.60;1.83;;;24.60;99.90;;;;;;5013474;28;20062;-41
2023/11/06 01:54:56;;;;;;;3.25;2.00;;;24.60;99.90;;;;;;5013361;28;20042;-41
2023/11/06 01:57:23;;;;;;;4.15;1.88;;;24.60;99.90;;;;;;5013472;28;20080;-41
2023/11/06 01:59:49;;;;;;;3.00;1.95;;;24.50;99.90;;;;;;5013146;28;20041;-40
2023/11/06 02:02:17;;;;;;;3.03;1.90;;;24.50;99.90;;;;;;5055942;22;20052;-47
2023/11/06 02:04:48;;;;;;;4.20;2.40;;;24.60;99.90;;;;;;5052983;28;20475;-48
2023/11/06 02:07:18;;;;;;;4.55;2.28;;;24.50;99.90;;;;;;5052824;28;20017;-47
2023/11/06 02:09:44;;;;;;;4.18;1.98;;;24.50;99.90;;;;;;5052704;28;20477;-47
2023/11/06 02:12:10;;;;;;;3.05;1.90;;;24.50;99.90;;;;;;5052843;28;20040;-48
2023/11/06 02:14:52;;;;;;;4.70;2.13;;;24.50;99.90;;;;;;5052761;28;20039;-47
2023/11/06 02:17:19;;;;;;;3.72;2.03;;;24.50;99.90;;;;;;5052851;28;20487;-47
2023/11/06 02:19:44;;;;;;;3.28;1.98;;;24.50;99.90;;;;;;5052754;28;20035;-47
2023/11/06 02:22:11;;;;;;;4.57;2.10;;;24.50;99.90;;;;;;5052535;28;20013;-48
2023/11/06 02:24:38;;;;;;;4.93;2.63;;;24.50;99.90;;;;;;5051379;28;20414;-48
2023/11/06 02:27:04;;;;;;;6.03;2.58;;;24.50;99.90;;;;;;5052538;28;20020;-48
2023/11/06 02:29:30;;;;;;;3.95;2.10;;;24.50;99.90;;;;;;5052345;28;20056;-48
2023/11/06 02:31:57;;;;;;;7.82;2.53;;;24.50;99.90;;;;;;5052537;28;20052;-47
2023/11/06 02:34:23;;;;;;;3.63;2.72;;;24.50;99.90;;;;;;5052373;28;20029;-48
2023/11/06 02:36:49;;;;;;;5.00;2.70;;;24.50;99.90;;;;;;5052210;28;20376;-48
2023/11/06 02:39:15;;;;;;;5.47;3.05;;;24.40;99.90;;;;;;5052214;28;20025;-47
2023/11/06 02:41:41;;;;;;;5.75;2.80;;;24.40;99.90;;;;;;5052516;28;20021;-47
2023/11/06 02:44:06;;;;;;;4.82;3.05;;;24.40;99.90;;;;;;5050124;28;20028;-47
2023/11/06 02:46:33;;;;;;;7.07;3.40;;;24.30;99.90;;;;;;5050942;28;20440;-47
2023/11/06 02:48:59;;;;;;;5.15;2.65;;;24.40;99.90;;;;;;5052189;28;20044;-48
2023/11/06 02:51:25;;;;;;;7.82;3.17;;;24.40;99.90;;;;;;5052148;28;20067;-47
2023/11/06 02:53:51;;;;;;;5.20;2.88;;;24.30;99.90;;;;;;5052042;28;20485;-48
2023/11/06 02:56:18;;;;;;;4.90;2.75;;;24.30;99.90;;;;;;5052136;28;20096;-48
2023/11/06 02:58:43;;;;;;;5.80;2.70;;;24.30;99.90;;;;;;5052052;28;20147;-47
2023/11/06 03:01:09;;;;;;;6.30;3.50;;;24.30;99.90;;;;;;5057757;22;20091;-56
2023/11/06 03:03:35;;;;;;;6.40;3.08;;;24.30;99.90;;;;;;5031992;28;20030;-56
2023/11/06 03:06:01;;;;;;;5.55;3.20;;;24.30;99.90;;;;;;5032116;28;20107;-56
2023/11/06 03:08:27;;;;;;;5.22;2.88;;;24.30;99.90;;;;;;5032134;28;20022;-56
2023/11/06 03:10:53;;;;;;;4.88;2.75;;;24.30;99.90;;;;;;5031933;28;20028;-56
2023/11/06 03:13:19;;;;;;;5.07;2.80;;;24.30;99.90;;;;;;5032092;28;20037;-56
2023/11/06 03:15:45;;;;;;;6.57;3.28;;;24.20;99.90;;;;;;5032092;28;20056;-56
2023/11/06 03:18:11;;;;;;;5.32;3.20;;;24.20;99.90;;;;;;5032366;28;20481;-58
2023/11/06 03:20:37;;;;;;;6.47;3.15;;;24.20;99.90;;;;;;5032014;28;20076;-57
2023/11/06 03:23:03;;;;;;;5.28;3.45;;;24.20;99.90;;;;;;5030652;28;20044;-57
2023/11/06 03:25:28;;;;;;;5.13;3.08;;;24.20;99.90;;;;;;5014352;28;20481;-57
2023/11/06 03:27:54;;;;;;;6.22;3.20;;;24.20;99.90;;;;;;5031992;28;20026;-57
2023/11/06 03:30:20;;;;;;;5.30;3.15;;;24.20;99.90;;;;;;5031978;28;20029;-57
2023/11/06 03:32:48;;;;;;;5.07;2.97;;;24.20;99.90;;;;;;5032093;28;20053;-57
2023/11/06 03:35:14;;;;;;;6.40;3.47;;;24.20;99.90;;;;;;5032036;28;20061;-58
2023/11/06 03:37:40;;;;;;;6.88;3.88;;;24.10;99.90;;;;;;5030700;28;20063;-57
2023/11/06 03:40:06;;;;;;;5.75;3.08;;;24.10;99.90;;;;;;5031975;28;20117;-57
2023/11/06 03:42:32;;;;;;;4.38;3.00;;;24.10;99.90;;;;;;5031880;28;20021;-57
2023/11/06 03:44:58;;;;;;;5.57;3.33;;;24.10;99.90;;;;;;5031876;28;20032;-57
2023/11/06 03:47:23;;;;;;;7.47;3.50;;;24.10;99.90;;;;;;5031772;28;20109;-57
2023/11/06 03:49:49;;;;;;;6.07;3.40;;;24.10;99.90;;;;;;5030518;28;20022;-56
2023/11/06 03:52:16;;;;;;;4.72;2.70;;;24.10;99.90;;;;;;5030608;28;20485;-56
2023/11/06 03:54:42;;;;;;;6.38;3.13;;;24.10;99.90;;;;;;5031936;28;20056;-56
2023/11/06 03:57:08;;;;;;;5.18;2.30;;;24.00;99.90;;;;;;5035285;28;20022;-56
2023/11/06 03:59:33;;;;;;;5.25;3.05;;;24.00;99.90;;;;;;5035328;28;20040;-56
2023/11/06 04:01:59;;;;;;;4.22;2.63;;;24.00;99.90;;;;;;5047793;22;20413;-46
2023/11/06 04:04:25;;;;;;;4.63;3.00;;;24.00;99.90;;;;;;5035049;28;20444;-47
2023/11/06 04:06:51;;;;;;;4.43;2.97;;;24.00;99.90;;;;;;5035297;28;20030;-46
2023/11/06 04:09:17;;;;;;;5.40;2.80;;;24.00;99.90;;;;;;5035360;28;20048;-47
2023/11/06 04:11:43;;;;;;;5.63;2.80;;;24.00;99.90;;;;;;5035419;28;20067;-47
2023/11/06 04:14:09;;;;;;;4.97;2.90;;;24.00;99.90;;;;;;5034867;28;20481;-47
2023/11/06 04:16:35;;;;;;;6.43;2.78;;;23.90;99.90;;;;;;5035104;28;20022;-47
2023/11/06 04:19:01;;;;;;;5.43;2.58;;;23.90;99.90;;;;;;5034946;28;20540;-47
2023/11/06 04:21:26;;;;;;;5.50;2.60;;;23.90;99.90;;;;;;5034848;28;20493;-47
2023/11/06 04:23:52;;;;;;;4.43;2.22;;;23.90;99.90;;;;;;5034844;28;20033;-46
2023/11/06 04:26:18;;;;;;;4.60;2.67;;;23.90;99.90;;;;;;5034847;28;20064;-47
2023/11/06 04:28:44;;;;;;;4.55;2.78;;;23.90;99.90;;;;;;5034989;28;20022;-47
2023/11/06 04:31:10;;;;;;;6.82;2.60;;;23.90;99.90;;;;;;5034690;28;20029;-47
2023/11/06 04:33:36;;;;;;;4.75;2.42;;;23.90;99.90;;;;;;5034658;28;20029;-47
2023/11/06 04:36:01;;;;;;;5.88;2.97;;;23.90;99.90;;;;;;5034645;28;20049;-47
2023/11/06 04:38:27;;;;;;;4.60;2.42;;;23.90;99.90;;;;;;5034641;28;20032;-47
2023/11/06 04:40:53;;;;;;;5.18;2.80;;;23.80;99.90;;;;;;5034718;28;20057;-47
2023/11/06 04:43:19;;;;;;;3.55;2.15;;;23.80;99.90;;;;;;5034570;28;20405;-47
2023/11/06 04:45:44;;;;;;;4.70;2.50;;;23.80;99.90;;;;;;5034780;28;20048;-47
2023/11/06 04:48:10;;;;;;;6.03;2.70;;;23.80;99.90;;;;;;5033134;28;20021;-47
2023/11/06 04:50:36;;;;;;;4.57;2.88;;;23.80;99.90;;;;;;5016565;28;20037;-47
2023/11/06 04:53:02;;;;;;;5.30;2.72;;;23.80;99.90;;;;;;5034237;28;20486;-47
2023/11/06 04:55:28;;;;;;;4.05;1.73;;;23.80;99.90;;;;;;5034158;28;20509;-47
2023/11/06 04:57:54;;;;;;;3.90;2.15;;;23.70;99.90;;;;;;5032917;28;20026;-47
2023/11/06 05:00:23;;;;;;;5.03;2.40;;;23.70;99.90;;;;;;5033402;28;20120;-47
2023/11/06 05:02:49;;;;;;;4.25;2.40;;;23.70;99.90;;;;;;5034359;28;20045;-47
2023/11/06 05:05:15;;;;;;;3.50;2.20;;;23.70;99.90;;;;;;5034193;28;20104;-47
2023/11/06 05:07:41;;;;;;;3.63;1.80;;;23.70;99.90;;;;;;5033075;28;20036;-47
2023/11/06 05:10:08;;;;;;;5.55;2.40;;;23.70;99.90;;;;;;5033975;28;20033;-47
2023/11/06 05:12:35;;;;;;;3.90;2.22;;;23.70;99.90;;;;;;5033878;28;20026;-46
2023/11/06 05:15:03;;;;;;;3.38;2.13;;;23.70;99.90;;;;;;5033780;28;20041;-47
2023/11/06 05:17:29;;;;;;;3.75;2.20;;;23.70;99.90;;;;;;5033821;28;20017;-47
2023/11/06 05:19:55;;;;;;;2.85;1.85;;;23.60;99.90;;;;;;5034029;28;20033;-47
2023/11/06 05:22:22;;;;;;;5.03;1.73;;;23.60;99.90;;;;;;5033662;28;20026;-47
2023/11/06 05:24:48;;;;;;;4.07;1.98;;;23.60;99.90;;;;;;5034016;28;20496;-47
2023/11/06 05:27:14;;;;;;;3.38;2.03;;;23.60;99.90;;;;;;5033650;28;20051;-47
2023/11/06 05:29:40;;;;;;;4.63;2.22;;;23.60;99.90;;;;;;5033658;28;20035;-47
2023/11/06 05:32:06;;;;;;;4.55;1.60;;;23.60;99.90;;;;;;5033524;28;20021;-47
2023/11/06 05:34:32;;;;;;;4.00;1.95;;;23.60;99.90;;;;;;5032058;28;20367;-47
2023/11/06 05:36:58;;;;;;;4.03;1.88;;;23.60;99.90;;;;;;5033321;28;20075;-47
2023/11/06 05:39:24;;;;;;;4.47;1.90;;;23.60;99.90;;;;;;5033433;28;20021;-46
2023/11/06 05:41:50;;;;;;;3.08;1.50;;;23.60;99.90;;;;;;5033553;28;20037;-47
2023/11/06 05:44:17;;;;;;;4.40;2.33;;;23.60;99.90;;;;;;5033234;28;20025;-47
2023/11/06 05:46:43;;;;;;;3.03;1.77;;;23.60;99.90;;;;;;5033334;28;20068;-46
2023/11/06 05:49:12;;;;;;;4.40;2.42;;;23.50;99.90;;;;;;5033105;28;20035;-47
2023/11/06 05:51:39;;;;;;;4.28;2.17;;;23.50;99.90;;;;;;5033203;28;20022;-46
2023/11/06 05:54:05;;;;;;;3.53;1.70;;;23.60;99.90;;;;;;5033097;28;20040;-46
2023/11/06 05:56:31;;;;;;;3.72;1.88;;;23.50;99.90;;;;;;5033116;28;20017;-47
2023/11/06 05:58:57;;;;;;;3.15;2.00;;;23.50;99.90;;;;;;5033072;28;20113;-47
2023/11/06 06:01:23;;;;;;;3.33;1.90;;;23.50;99.90;;;;;;5032123;28;20132;-47
2023/11/06 06:03:49;;;;;;;5.95;1.92;;;23.50;99.90;;;;;;5033456;28;20021;-47
2023/11/06 06:06:16;;;;;;;4.00;2.30;;;23.50;99.90;;;;;;5032915;28;20029;-47
2023/11/06 06:08:43;;;;;;;3.63;1.77;;;23.50;99.90;;;;;;5033033;28;20022;-47
2023/11/06 06:11:08;;;;;;;3.30;1.90;;;23.40;99.90;;;;;;5031540;28;20103;-47
2023/11/06 06:13:34;;;;;;;4.07;1.60;;;23.40;99.90;;;;;;5031817;28;20026;-47
2023/11/06 06:16:03;;;;;;;3.53;2.30;;;23.40;99.90;;;;;;5032860;28;20104;-47
2023/11/06 06:18:29;;;;;;;3.97;1.80;;;23.40;99.90;;;;;;5032748;28;20026;-47
2023/11/06 06:20:55;;;;;;;7.40;1.98;;;23.40;99.90;;;;;;5032756;28;20074;-47
2023/11/06 06:23:21;;;;;;;3.70;1.77;;;23.40;99.90;;;;;;5032854;28;20026;-47
2023/11/06 06:25:46;;;;;;;5.30;3.10;;;23.40;99.90;;;;;;5032643;28;20029;-47
2023/11/06 06:28:12;;;;;;;4.65;1.98;;;23.40;99.90;;;;;;5032589;28;20025;-47
2023/11/06 06:30:38;;;;;;;4.60;2.15;;;23.40;99.90;;;;;;5032558;28;20025;-47
2023/11/06 06:33:04;;;;;;;4.63;2.33;;;23.40;99.90;;;;;;5032405;28;20033;-47
2023/11/06 06:35:30;;;;;;;3.65;1.88;;;23.30;99.90;;;;;;5032383;28;20041;-47
2023/11/06 06:37:56;;;;;;;5.00;2.22;;;23.30;99.90;;;;;;5031146;28;20049;-47
2023/11/06 06:40:21;;;;;;;3.40;2.17;;;23.30;99.90;;;;;;5032288;28;20474;-47
2023/11/06 06:42:47;;;;;;;4.93;2.40;;;23.30;99.90;;;;;;5032131;28;20067;-47
2023/11/06 06:45:13;;;;;;;2.90;1.80;;;23.30;99.90;;;;;;5032153;28;20096;-47
2023/11/06 06:47:39;;;;;;;4.03;2.20;;;23.30;99.90;;;;;;5031949;28;20366;-47
2023/11/06 06:50:05;;;;;;;4.88;2.05;;;23.30;99.90;;;;;;5032179;28;20022;-47
2023/11/06 06:52:32;;;;;;;4.57;1.92;;;23.30;99.90;;;;;;5032053;28;20025;-47
2023/11/06 06:54:58;;;;;;;4.85;1.88;;;23.30;99.90;;;;;;5031936;28;20375;-47
2023/11/06 06:57:23;;;;;;;4.82;2.78;;;23.20;99.90;;;;;;5032146;28;20022;-47
2023/11/06 06:59:49;;;;;;;4.97;2.22;;;23.20;99.90;;;;;;5031771;28;20512;-47
2023/11/06 07:02:15;;;;;;;7.93;2.47;;;23.20;99.90;;;;;;5031942;28;20521;-47
2023/11/06 07:04:41;;;;;;;5.53;2.40;;;23.20;99.90;;;;;;5031942;28;20022;-47
2023/11/06 07:07:07;;;;;;;6.35;2.42;;;23.20;99.90;;;;;;5031806;28;20489;-47
2023/11/06 07:09:34;;;;;;;3.95;2.50;;;23.20;99.90;;;;;;5031817;28;20033;-47
2023/11/06 07:12:02;;;;;;;7.55;2.88;;;23.20;99.90;;;;;;5031829;28;20470;-48
2023/11/06 07:14:28;;;;;;;6.60;2.75;;;23.10;99.90;;;;;;5031668;28;20580;-47
2023/11/06 07:16:57;;;;;;;5.03;2.35;;;23.10;99.90;;;;;;5031905;28;20045;-47
2023/11/06 07:19:24;;;;;;;5.45;2.55;;;23.20;99.90;;;;;;5031776;28;20048;-47
2023/11/06 07:21:50;;;;;;;5.75;2.47;;;23.10;99.90;;;;;;5031791;28;20032;-47
2023/11/06 07:24:16;;;;;;;6.07;2.60;;;23.10;99.90;;;;;;5031881;28;20033;-47
2023/11/06 07:26:41;;;;;;;7.70;2.80;;;23.10;99.90;;;;;;5031853;28;20101;-47
2023/11/06 07:29:07;;;;;;;5.53;2.58;;;23.10;99.90;;;;;;5031955;28;20037;-47
2023/11/06 07:31:33;;;;;;;31.17;3.33;;;23.10;99.90;;;;;;5035108;28;20462;-47
2023/11/06 07:33:59;;;;;;;9.15;2.80;;;23.10;99.90;;;;;;5035675;28;20417;-47
2023/11/06 07:36:25;;;;;;;5.82;2.90;;;23.10;99.90;;;;;;5036005;28;20064;-47
2023/11/06 07:38:50;;;;;;;8.82;3.20;;;23.10;99.90;;;;;;5035712;28;20109;-47
2023/11/06 07:41:17;;;;;;;5.60;3.08;;;23.10;99.90;;;;;;5035673;28;20025;-47
2023/11/06 07:43:43;;;;;;;6.28;2.50;;;23.10;99.90;;;;;;5035541;28;20064;-47
2023/11/06 07:46:17;;;;;;;8.13;3.08;;;23.10;99.90;;;;;;5035531;28;20028;-47
2023/11/06 07:48:43;;;;;;;4.68;2.75;;;23.10;99.90;;;;;;5035455;28;20141;-47
2023/11/06 07:51:09;;;;;;;7.82;2.60;;;23.10;99.90;;;;;;5034087;28;20550;-47
2023/11/06 07:53:35;;;;;;;8.63;2.45;;;23.20;99.90;;;;;;5034190;28;20076;-47
2023/11/06 07:56:03;;;;;;;5.65;2.67;;;23.20;99.90;;;;;;5035230;28;20035;-47
2023/11/06 07:58:29;;;;;;;6.38;3.10;;;23.20;99.90;;;;;;5035313;28;20080;-47
2023/11/06 08:00:54;;;;;;;5.70;2.95;;;23.30;99.90;;;;;;5035043;28;20049;-47
2023/11/06 08:03:20;;;;;;;11.05;3.40;;;23.30;99.90;;;;;;5035221;28;20021;-48
2023/11/06 08:05:46;;;;;;;9.38;2.75;;;23.30;99.90;;;;;;5035073;28;20025;-47
2023/11/06 08:08:12;;;;;;;9.55;2.67;;;23.40;99.90;;;;;;5033685;28;20022;-47
2023/11/06 08:10:38;;;;;;;6.03;2.42;;;23.40;99.90;;;;;;5034909;28;20110;-47
2023/11/06 08:13:03;;;;;;;6.43;2.60;;;23.40;99.90;;;;;;5033556;28;20022;-47
2023/11/06 08:15:29;;;;;;;5.65;3.33;;;23.50;99.90;;;;;;5035228;28;20033;-47
2023/11/06 08:17:55;;;;;;;7.25;3.13;;;23.50;99.90;;;;;;5035289;28;20029;-48
2023/11/06 08:20:21;;;;;;;6.03;2.65;;;23.50;99.90;;;;;;5034901;28;20038;-47
2023/11/06 08:22:47;;;;;;;6.47;3.13;;;23.60;99.90;;;;;;5034733;28;20096;-48
2023/11/06 08:25:14;;;;;;;7.47;3.03;;;23.60;99.90;;;;;;5034624;28;20022;-48
2023/11/06 08:27:40;;;;;;;5.83;3.30;;;23.70;99.90;;;;;;5033613;28;20025;-48
2023/11/06 08:30:09;;;;;;;6.65;3.13;;;23.70;99.90;;;;;;5034726;28;20316;-48
2023/11/06 08:32:35;;;;;;;6.20;2.88;;;23.70;99.90;;;;;;5034668;28;20401;-47
2023/11/06 08:35:04;;;;;;;5.82;2.80;;;23.70;99.90;;;;;;5034481;28;20033;-47
2023/11/06 08:37:31;;;;;;;5.82;3.00;;;23.80;99.90;;;;;;5034761;28;20071;-48
2023/11/06 08:39:57;;;;;;;5.75;3.53;;;23.90;99.90;;;;;;5034829;28;20020;-47
2023/11/06 08:42:23;;;;;;;6.78;3.00;;;23.90;99.90;;;;;;5034462;28;20029;-48
2023/11/06 08:44:49;;;;;;;6.57;2.55;;;23.90;99.90;;;;;;5034316;28;20022;-47
2023/11/06 08:47:19;;;;;;;6.38;3.38;;;23.90;99.90;;;;;;5034167;28;20028;-47
2023/11/06 08:49:46;;;;;;;9.13;3.22;;;24.00;99.90;;;;;;5034273;28;20378;-48
2023/11/06 08:52:12;;;;;;;9.55;3.55;;;24.00;99.90;;;;;;5034104;28;20022;-47
2023/11/06 08:54:40;;;;;;;6.45;3.13;;;24.00;99.90;;;;;;5034150;28;20091;-48
2023/11/06 08:57:07;;;;;;;6.43;2.97;;;24.00;99.90;;;;;;5034191;28;20018;-48
2023/11/06 08:59:33;;;;;;;6.03;3.23;;;24.10;99.90;;;;;;5034177;28;20018;-48
2023/11/06 09:01:59;;;;;;;7.82;3.63;;;24.20;99.90;;;;;;5034274;28;20116;-48
2023/11/06 09:04:25;;;;;;;6.10;3.20;;;24.20;99.90;;;;;;5034402;28;20036;-47
2023/11/06 09:06:50;;;;;;;6.75;3.15;;;24.20;99.90;;;;;;5034095;28;20017;-48
2023/11/06 09:09:16;;;;;;;6.00;2.63;;;24.30;99.90;;;;;;5034005;28;20466;-47
2023/11/06 09:11:42;;;;;;;8.32;3.20;;;24.30;99.90;;;;;;5033791;28;20664;-47
2023/11/06 09:14:09;;;;;;;4.63;2.55;;;24.40;99.90;;;;;;5033879;28;20034;-48
2023/11/06 09:16:38;;;;;;;6.93;2.97;;;24.40;99.90;;;;;;5033912;28;20023;-48
2023/11/06 09:19:05;;;;;;;4.85;2.70;;;24.40;99.90;;;;;;5032482;28;20029;-48
2023/11/06 09:21:32;;;;;;;7.93;2.40;;;24.50;99.90;;;;;;5033584;28;20497;-47
2023/11/06 09:23:58;;;;;;;7.32;2.53;;;24.50;99.90;;;;;;5033783;28;20022;-48
2023/11/06 09:26:24;;;;;;;6.32;3.42;;;24.50;99.90;;;;;;5033394;28;20528;-48
2023/11/06 09:28:50;;;;;;;5.68;3.05;;;24.60;99.90;;;;;;5033433;28;20025;-48
2023/11/06 09:31:20;;;;;;;7.00;2.33;;;24.60;99.90;;;;;;5033280;28;20117;-48
2023/11/06 09:33:53;;;;;;;4.18;2.42;;;24.70;99.90;;;;;;5033055;28;20076;-47
2023/11/06 09:36:19;;;;;;;6.05;2.80;;;24.70;99.90;;;;;;5033073;28;20056;-48
2023/11/06 09:38:45;;;;;;;5.13;2.90;;;24.70;99.90;;;;;;5032986;28;20049;-48
2023/11/06 09:41:14;;;;;;;5.47;2.85;;;24.80;99.90;;;;;;5033093;28;20434;-47
2023/11/06 09:43:43;;;;;;;5.47;2.70;;;24.80;99.90;;;;;;5032837;28;20075;-49
2023/11/06 09:46:10;;;;;;;5.43;2.47;;;24.90;99.90;;;;;;5031663;28;20387;-48
2023/11/06 09:48:37;;;;;;;;;;;24.90;99.90;;;;;;5033386;28;20025;-48
2023/11/06 09:51:10;;;;;;;5.68;2.53;;;24.90;99.90;;;;;;5033087;28;19905;-48
2023/11/06 09:53:39;;;;;;;4.07;2.20;;;25.00;99.90;;;;;;5031006;28;20022;-48
2023/11/06 09:56:08;;;;;;;4.28;2.08;;;25.10;99.90;;;;;;5032863;28;20415;-48
2023/11/06 09:58:35;;;;;;;4.07;2.25;;;25.10;99.90;;;;;;5032804;28;20489;-48
2023/11/06 10:01:01;;;;;;;7.00;2.65;;;25.20;99.90;;;;;;5032772;28;20098;-48
2023/11/06 10:03:26;;;;;;;5.25;2.72;;;25.20;99.90;;;;;;5032598;28;20109;-48
2023/11/06 10:05:52;;;;;;;4.93;2.00;;;25.20;99.90;;;;;;5032821;28;20038;-48
2023/11/06 10:08:31;;;;;;;4.80;2.40;;;25.30;99.90;;;;;;5032817;28;20473;-48
2023/11/06 10:11:02;;;;;;;9.30;2.80;;;25.40;99.90;;;;;;5032587;28;20074;-48
2023/11/06 10:13:28;;;;;;;35.60;3.65;;;25.40;99.90;;;;;;5031993;28;20025;-48
2023/11/06 10:15:55;;;;;;;5.60;3.10;;;25.50;99.90;;;;;;5032225;28;20033;-48
2023/11/06 10:18:23;;;;;;;6.03;2.60;;;25.50;99.90;;;;;;5032085;28;20032;-47
2023/11/06 10:20:51;;;;;;;5.68;2.63;;;25.60;99.90;;;;;;5032277;28;20332;-48
2023/11/06 10:23:27;;;;;;;6.40;2.70;;;25.60;99.90;;;;;;5032049;28;20088;-48
2023/11/06 10:26:13;;;;;;;4.95;2.45;;;25.60;99.90;;;;;;5032182;28;20051;-48
2023/11/06 10:28:39;;;;;;;6.97;3.25;;;25.70;99.90;;;;;;5031950;28;20079;-48
2023/11/06 10:31:05;;;;;;;6.10;3.00;;;25.80;99.90;;;;;;5032282;28;20490;-48
2023/11/06 10:33:34;;;;;;;4.63;2.50;;;25.80;99.90;;;;;;5014163;28;20022;-48
2023/11/06 10:36:00;;;;;;;5.28;2.42;;;25.80;99.90;;;;;;5031916;28;20028;-48
2023/11/06 10:38:33;;;;;;;4.82;2.38;;;25.80;99.90;;;;;;5031881;28;20018;-48
2023/11/06 10:41:13;;;;;;;5.82;3.03;;;25.90;99.90;;;;;;5031855;28;20025;-48
2023/11/06 10:43:41;;;;;;;5.22;2.70;;;25.90;99.90;;;;;;5031907;28;20030;-48
2023/11/06 10:46:10;;;;;;;4.80;2.60;;;25.90;99.90;;;;;;5031930;28;20021;-48
2023/11/06 10:48:53;;;;;;;6.40;3.15;;;26.00;99.90;;;;;;5030515;28;20056;-48
2023/11/06 10:51:21;;;;;;;5.38;3.22;;;26.00;99.90;;;;;;5030565;28;20036;-47
2023/11/06 10:53:49;;;;;;;6.68;2.70;;;26.00;99.90;;;;;;5031367;28;20033;-48
2023/11/06 10:56:17;;;;;;;7.03;2.90;;;26.10;99.90;;;;;;5031574;28;20068;-48
2023/11/06 10:58:43;;;;;;;5.10;2.65;;;26.10;99.90;;;;;;5030200;28;20025;-48
2023/11/06 11:01:10;;;;;;;6.17;2.60;;;26.20;99.90;;;;;;5031609;28;20410;-48
2023/11/06 11:03:36;;;;;;;7.40;2.80;;;26.20;99.90;;;;;;5031766;28;20022;-48
2023/11/06 11:06:06;;;;;;;7.40;3.65;;;26.20;99.90;;;;;;5033766;28;20416;-48
2023/11/06 11:08:33;;;;;;;4.93;2.67;;;26.20;99.90;;;;;;5035846;28;20357;-48
2023/11/06 11:10:59;;;;;;;4.05;2.70;;;26.20;99.90;;;;;;5035618;28;20140;-48
2023/11/06 11:13:25;;;;;;;5.32;3.10;;;26.30;99.90;;;;;;5035453;28;20108;-48
2023/11/06 11:15:51;;;;;;;7.65;3.20;;;26.30;99.90;;;;;;5035566;28;20102;-48
2023/11/06 11:18:28;;;;;;;7.55;3.13;;;26.30;99.90;;;;;;5035370;28;20108;-49
2023/11/06 11:21:01;;;;;;;7.65;3.50;;;26.40;99.90;;;;;;5035305;28;20055;-48
2023/11/06 11:23:52;;;;;;;5.65;2.88;;;26.40;99.90;;;;;;5035103;28;20018;-48
2023/11/06 11:26:18;;;;;;;5.32;2.80;;;26.40;99.90;;;;;;5035151;28;20041;-48
2023/11/06 11:29:09;;;;;;;5.30;2.85;;;26.40;99.90;;;;;;5033922;28;20363;-48
2023/11/06 11:31:44;;;;;;;4.22;2.55;;;26.50;99.90;;;;;;5035443;28;21048;-48
2023/11/06 11:34:33;;;;;;;4.75;3.05;;;26.50;99.90;;;;;;5035151;28;20104;-49
2023/11/06 11:37:19;;;;;;;7.72;3.13;;;26.50;99.90;;;;;;5035004;28;20014;-48
2023/11/06 11:39:59;;;;;;;5.18;2.75;;;26.60;99.90;;;;;;5035034;28;20022;-47
2023/11/06 11:42:25;;;;;;;4.88;2.95;;;26.60;99.90;;;;;;5035491;28;20021;-48
2023/11/06 11:44:59;;;;;;;5.32;3.10;;;26.60;99.90;;;;;;5035340;28;20018;-48
2023/11/06 11:47:25;;;;;;;5.63;2.70;;;26.60;99.90;;;;;;5035262;28;20032;-47
2023/11/06 11:49:52;;;;;;;5.97;2.92;;;26.70;99.90;;;;;;5035341;28;20032;-47
2023/11/06 11:52:24;;;;;;;5.85;2.60;;;26.70;99.90;;;;;;5033915;28;20029;-47
2023/11/06 11:54:51;;;;;;;5.93;3.20;;;26.70;99.90;;;;;;5035114;28;20478;-47
2023/11/06 11:57:17;;;;;;;5.32;2.80;;;26.70;99.90;;;;;;5035291;28;20036;-47
2023/11/06 11:59:49;;;;;;;6.18;2.88;;;26.80;99.90;;;;;;5035084;28;20112;-47
2023/11/06 12:02:24;;;;;;;5.10;3.00;;;26.80;99.90;;;;;;5035022;28;20060;-47
2023/11/06 12:04:49;;;;;;;5.97;2.90;;;26.80;99.90;;;;;;5034990;28;20022;-47
2023/11/06 12:07:16;;;;;;;8.35;2.97;;;26.80;99.90;;;;;;5034908;28;20033;-47
2023/11/06 12:09:46;;;;;;;6.00;2.95;;;26.80;99.90;;;;;;5033956;28;20045;-47
2023/11/06 12:12:22;;;;;;;5.00;2.63;;;26.90;99.90;;;;;;5034952;28;20024;-47
2023/11/06 12:14:48;;;;;;;6.25;3.13;;;26.90;99.90;;;;;;5034466;28;20034;-47
2023/11/06 12:17:34;;;;;;;6.37;3.00;;;26.90;99.90;;;;;;5034120;28;20036;-47
2023/11/06 12:20:01;;;;;;;10.95;2.67;;;26.90;99.90;;;;;;5034949;28;20036;-47
2023/11/06 12:22:30;;;;;;;4.32;2.72;;;26.90;99.90;;;;;;5034858;28;20032;-48
2023/11/06 12:24:57;;;;;;;3.90;2.47;;;27.00;99.90;;;;;;5034739;28;20025;-48
2023/11/06 12:27:33;;;;;;;5.97;2.15;;;27.00;99.90;;;;;;5034502;28;20020;-47
2023/11/06 12:30:07;;;;;;;5.55;2.55;;;27.00;99.90;;;;;;5034724;28;20018;-49
2023/11/06 12:32:34;;;;;;;8.05;2.85;;;27.00;99.90;;;;;;5034494;28;20022;-48
2023/11/06 12:35:07;;;;;;;5.82;1.98;;;27.00;99.90;;;;;;5034253;28;20037;-49
2023/11/06 12:37:52;;;;;;;4.90;2.30;;;27.00;99.90;;;;;;5034403;28;20429;-48
2023/11/06 12:40:19;;;;;;;5.20;2.50;;;27.00;99.90;;;;;;5034452;28;20022;-47
2023/11/06 12:42:45;;;;;;;4.53;2.55;;;27.00;99.90;;;;;;5034491;28;20022;-47
2023/11/06 12:45:39;;;;;;;8.70;2.88;;;27.10;99.90;;;;;;5034662;28;20079;-47
2023/11/06 12:48:28;;;;;;;6.72;2.70;;;27.10;99.90;;;;;;5034279;28;20017;-47